sensor_id;sensor_type;location;lat;lon;timestamp;P1;durP1;ratioP1;P2;durP2;ratioP2
8825;SDS011;4449;50.872;4.714;2023-03-03T00:00:14;24.17;;;13.87;;
8825;SDS011;4449;50.872;4.714;2023-03-03T00:02:42;24.67;;;14.23;;
8825;SDS011;4449;50.872;4.714;2023-03-03T00:05:09;23.23;;;13.10;;
8825;SDS011;4449;50.872;4.714;2023-03-03T00:07:43;23.50;;;13.37;;
8825;SDS011;4449;50.872;4.714;2023-03-03T00:10:11;25.50;;;14.03;;
8825;SDS011;4449;50.872;4.714;2023-03-03T00:12:44;24.93;;;13.93;;
8825;SDS011;4449;50.872;4.714;2023-03-03T00:15:13;23.90;;;14.27;;
8825;SDS011;4449;50.872;4.714;2023-03-03T00:17:41;24.10;;;13.80;;
8825;SDS011;4449;50.872;4.714;2023-03-03T00:20:25;26.90;;;14.13;;
8825;SDS011;4449;50.872;4.714;2023-03-03T00:22:54;27.50;;;15.47;;
8825;SDS011;4449;50.872;4.714;2023-03-03T00:25:25;23.90;;;13.90;;
8825;SDS011;4449;50.872;4.714;2023-03-03T00:27:54;26.20;;;15.27;;
8825;SDS011;4449;50.872;4.714;2023-03-03T00:30:23;25.37;;;14.90;;
8825;SDS011;4449;50.872;4.714;2023-03-03T00:32:51;25.33;;;15.27;;
8825;SDS011;4449;50.872;4.714;2023-03-03T00:35:22;26.07;;;14.33;;
8825;SDS011;4449;50.872;4.714;2023-03-03T00:37:53;29.83;;;14.17;;
8825;SDS011;4449;50.872;4.714;2023-03-03T00:40:23;26.13;;;13.43;;
8825;SDS011;4449;50.872;4.714;2023-03-03T00:42:52;23.53;;;13.33;;
8825;SDS011;4449;50.872;4.714;2023-03-03T00:45:26;25.33;;;14.70;;
8825;SDS011;4449;50.872;4.714;2023-03-03T00:47:54;23.57;;;13.37;;
8825;SDS011;4449;50.872;4.714;2023-03-03T00:50:26;22.60;;;13.33;;
8825;SDS011;4449;50.872;4.714;2023-03-03T00:52:58;24.10;;;14.77;;
8825;SDS011;4449;50.872;4.714;2023-03-03T00:55:28;24.90;;;13.33;;
8825;SDS011;4449;50.872;4.714;2023-03-03T00:57:56;22.60;;;13.33;;
8825;SDS011;4449;50.872;4.714;2023-03-03T01:00:24;24.43;;;12.90;;
8825;SDS011;4449;50.872;4.714;2023-03-03T01:02:52;28.93;;;15.83;;
8825;SDS011;4449;50.872;4.714;2023-03-03T01:05:20;27.53;;;14.87;;
8825;SDS011;4449;50.872;4.714;2023-03-03T01:07:48;28.60;;;14.93;;
8825;SDS011;4449;50.872;4.714;2023-03-03T01:10:15;25.93;;;14.27;;
8825;SDS011;4449;50.872;4.714;2023-03-03T01:12:45;25.30;;;14.03;;
8825;SDS011;4449;50.872;4.714;2023-03-03T01:15:13;24.80;;;13.93;;
8825;SDS011;4449;50.872;4.714;2023-03-03T01:17:41;26.50;;;14.97;;
8825;SDS011;4449;50.872;4.714;2023-03-03T01:20:10;26.27;;;14.53;;
8825;SDS011;4449;50.872;4.714;2023-03-03T01:22:38;30.07;;;16.53;;
8825;SDS011;4449;50.872;4.714;2023-03-03T01:25:06;27.60;;;14.70;;
8825;SDS011;4449;50.872;4.714;2023-03-03T01:27:34;29.23;;;14.87;;
8825;SDS011;4449;50.872;4.714;2023-03-03T01:30:04;26.43;;;13.60;;
8825;SDS011;4449;50.872;4.714;2023-03-03T01:32:33;30.13;;;15.37;;
8825;SDS011;4449;50.872;4.714;2023-03-03T01:35:01;25.07;;;14.30;;
8825;SDS011;4449;50.872;4.714;2023-03-03T01:37:29;28.93;;;17.17;;
8825;SDS011;4449;50.872;4.714;2023-03-03T01:39:56;24.27;;;14.03;;
8825;SDS011;4449;50.872;4.714;2023-03-03T01:42:24;24.07;;;12.93;;
8825;SDS011;4449;50.872;4.714;2023-03-03T01:45:16;20.97;;;12.33;;
8825;SDS011;4449;50.872;4.714;2023-03-03T01:47:45;27.77;;;14.30;;
8825;SDS011;4449;50.872;4.714;2023-03-03T01:50:14;26.83;;;14.30;;
8825;SDS011;4449;50.872;4.714;2023-03-03T01:52:44;24.10;;;13.20;;
8825;SDS011;4449;50.872;4.714;2023-03-03T01:55:14;24.20;;;13.60;;
8825;SDS011;4449;50.872;4.714;2023-03-03T01:57:43;21.83;;;13.80;;
8825;SDS011;4449;50.872;4.714;2023-03-03T02:00:14;25.90;;;13.57;;
8825;SDS011;4449;50.872;4.714;2023-03-03T02:02:42;22.90;;;13.67;;
8825;SDS011;4449;50.872;4.714;2023-03-03T02:05:10;30.30;;;15.00;;
8825;SDS011;4449;50.872;4.714;2023-03-03T02:07:39;25.57;;;14.67;;
8825;SDS011;4449;50.872;4.714;2023-03-03T02:10:08;25.73;;;13.80;;
8825;SDS011;4449;50.872;4.714;2023-03-03T02:12:37;24.03;;;14.53;;
8825;SDS011;4449;50.872;4.714;2023-03-03T02:15:19;26.97;;;14.40;;
8825;SDS011;4449;50.872;4.714;2023-03-03T02:17:47;24.27;;;14.03;;
8825;SDS011;4449;50.872;4.714;2023-03-03T02:20:17;23.63;;;13.57;;
8825;SDS011;4449;50.872;4.714;2023-03-03T02:22:47;27.10;;;14.63;;
8825;SDS011;4449;50.872;4.714;2023-03-03T02:25:18;26.90;;;15.07;;
8825;SDS011;4449;50.872;4.714;2023-03-03T02:27:50;27.80;;;14.30;;
8825;SDS011;4449;50.872;4.714;2023-03-03T02:30:19;25.30;;;14.03;;
8825;SDS011;4449;50.872;4.714;2023-03-03T02:32:47;29.53;;;14.87;;
8825;SDS011;4449;50.872;4.714;2023-03-03T02:38:02;25.60;;;14.40;;
8825;SDS011;4449;50.872;4.714;2023-03-03T02:40:32;24.73;;;14.13;;
8825;SDS011;4449;50.872;4.714;2023-03-03T02:43:02;25.30;;;14.23;;
8825;SDS011;4449;50.872;4.714;2023-03-03T02:45:31;26.00;;;14.27;;
8825;SDS011;4449;50.872;4.714;2023-03-03T02:47:59;26.33;;;14.37;;
8825;SDS011;4449;50.872;4.714;2023-03-03T02:50:26;26.10;;;14.97;;
8825;SDS011;4449;50.872;4.714;2023-03-03T02:52:54;26.67;;;14.87;;
8825;SDS011;4449;50.872;4.714;2023-03-03T02:55:22;26.10;;;14.60;;
8825;SDS011;4449;50.872;4.714;2023-03-03T02:57:49;26.70;;;13.87;;
8825;SDS011;4449;50.872;4.714;2023-03-03T03:00:19;29.07;;;15.27;;
8825;SDS011;4449;50.872;4.714;2023-03-03T03:02:47;23.63;;;13.70;;
8825;SDS011;4449;50.872;4.714;2023-03-03T03:05:14;26.53;;;14.40;;
8825;SDS011;4449;50.872;4.714;2023-03-03T03:07:42;26.67;;;14.90;;
8825;SDS011;4449;50.872;4.714;2023-03-03T03:10:10;30.50;;;15.13;;
8825;SDS011;4449;50.872;4.714;2023-03-03T03:12:38;26.97;;;14.43;;
8825;SDS011;4449;50.872;4.714;2023-03-03T03:15:06;24.70;;;13.83;;
8825;SDS011;4449;50.872;4.714;2023-03-03T03:17:37;27.00;;;15.87;;
8825;SDS011;4449;50.872;4.714;2023-03-03T03:20:05;28.10;;;15.83;;
8825;SDS011;4449;50.872;4.714;2023-03-03T03:22:33;27.90;;;14.73;;
8825;SDS011;4449;50.872;4.714;2023-03-03T03:25:01;31.97;;;15.43;;
8825;SDS011;4449;50.872;4.714;2023-03-03T03:27:31;27.20;;;14.57;;
8825;SDS011;4449;50.872;4.714;2023-03-03T03:29:59;27.40;;;14.70;;
8825;SDS011;4449;50.872;4.714;2023-03-03T03:32:27;28.30;;;15.27;;
8825;SDS011;4449;50.872;4.714;2023-03-03T03:34:56;28.20;;;15.07;;
8825;SDS011;4449;50.872;4.714;2023-03-03T03:37:24;28.57;;;15.70;;
8825;SDS011;4449;50.872;4.714;2023-03-03T03:39:52;27.80;;;15.90;;
8825;SDS011;4449;50.872;4.714;2023-03-03T03:42:20;27.90;;;15.87;;
8825;SDS011;4449;50.872;4.714;2023-03-03T03:44:48;27.83;;;15.23;;
8825;SDS011;4449;50.872;4.714;2023-03-03T03:47:16;27.37;;;15.03;;
8825;SDS011;4449;50.872;4.714;2023-03-03T03:49:44;30.50;;;15.67;;
8825;SDS011;4449;50.872;4.714;2023-03-03T03:52:13;30.23;;;15.37;;
8825;SDS011;4449;50.872;4.714;2023-03-03T03:54:41;28.23;;;14.83;;
8825;SDS011;4449;50.872;4.714;2023-03-03T03:57:09;29.57;;;15.00;;
8825;SDS011;4449;50.872;4.714;2023-03-03T03:59:36;24.77;;;15.73;;
8825;SDS011;4449;50.872;4.714;2023-03-03T04:02:04;28.30;;;15.27;;
8825;SDS011;4449;50.872;4.714;2023-03-03T04:04:32;28.97;;;15.27;;
8825;SDS011;4449;50.872;4.714;2023-03-03T04:07:00;27.53;;;15.07;;
8825;SDS011;4449;50.872;4.714;2023-03-03T04:09:30;28.67;;;14.90;;
8825;SDS011;4449;50.872;4.714;2023-03-03T04:11:57;25.83;;;14.60;;
8825;SDS011;4449;50.872;4.714;2023-03-03T04:14:25;33.37;;;16.57;;
8825;SDS011;4449;50.872;4.714;2023-03-03T04:16:53;30.13;;;15.60;;
8825;SDS011;4449;50.872;4.714;2023-03-03T04:19:21;27.57;;;15.60;;
8825;SDS011;4449;50.872;4.714;2023-03-03T04:21:48;26.63;;;15.60;;
8825;SDS011;4449;50.872;4.714;2023-03-03T04:24:17;30.38;;;15.43;;
8825;SDS011;4449;50.872;4.714;2023-03-03T04:26:46;30.77;;;15.52;;
8825;SDS011;4449;50.872;4.714;2023-03-03T04:29:14;27.80;;;14.70;;
8825;SDS011;4449;50.872;4.714;2023-03-03T04:31:42;30.63;;;14.63;;
8825;SDS011;4449;50.872;4.714;2023-03-03T04:34:09;28.77;;;16.23;;
8825;SDS011;4449;50.872;4.714;2023-03-03T04:36:37;29.17;;;15.43;;
8825;SDS011;4449;50.872;4.714;2023-03-03T04:39:05;29.90;;;16.15;;
8825;SDS011;4449;50.872;4.714;2023-03-03T04:41:32;30.60;;;16.60;;
8825;SDS011;4449;50.872;4.714;2023-03-03T04:44:02;33.95;;;17.63;;
8825;SDS011;4449;50.872;4.714;2023-03-03T04:46:30;32.08;;;17.55;;
8825;SDS011;4449;50.872;4.714;2023-03-03T04:48:58;35.03;;;18.30;;
8825;SDS011;4449;50.872;4.714;2023-03-03T04:51:26;38.83;;;18.02;;
8825;SDS011;4449;50.872;4.714;2023-03-03T04:53:53;38.03;;;17.27;;
8825;SDS011;4449;50.872;4.714;2023-03-03T04:56:21;31.93;;;17.57;;
8825;SDS011;4449;50.872;4.714;2023-03-03T04:58:49;33.23;;;15.67;;
8825;SDS011;4449;50.872;4.714;2023-03-03T05:01:18;30.10;;;16.03;;
8825;SDS011;4449;50.872;4.714;2023-03-03T05:03:45;33.88;;;16.52;;
8825;SDS011;4449;50.872;4.714;2023-03-03T05:06:13;32.72;;;16.80;;
8825;SDS011;4449;50.872;4.714;2023-03-03T05:08:43;36.17;;;17.52;;
8825;SDS011;4449;50.872;4.714;2023-03-03T05:11:11;33.38;;;17.10;;
8825;SDS011;4449;50.872;4.714;2023-03-03T05:13:39;37.88;;;17.50;;
8825;SDS011;4449;50.872;4.714;2023-03-03T05:16:07;36.92;;;18.15;;
8825;SDS011;4449;50.872;4.714;2023-03-03T05:18:37;32.95;;;17.73;;
8825;SDS011;4449;50.872;4.714;2023-03-03T05:21:04;36.40;;;18.20;;
8825;SDS011;4449;50.872;4.714;2023-03-03T05:23:32;32.63;;;17.05;;
8825;SDS011;4449;50.872;4.714;2023-03-03T05:26:00;35.40;;;17.83;;
8825;SDS011;4449;50.872;4.714;2023-03-03T05:28:28;34.78;;;17.80;;
8825;SDS011;4449;50.872;4.714;2023-03-03T05:30:56;37.08;;;18.15;;
8825;SDS011;4449;50.872;4.714;2023-03-03T05:33:23;36.50;;;17.67;;
8825;SDS011;4449;50.872;4.714;2023-03-03T05:35:54;35.78;;;19.60;;
8825;SDS011;4449;50.872;4.714;2023-03-03T05:38:22;37.70;;;19.20;;
8825;SDS011;4449;50.872;4.714;2023-03-03T05:40:50;46.88;;;19.42;;
8825;SDS011;4449;50.872;4.714;2023-03-03T05:43:19;42.72;;;20.65;;
8825;SDS011;4449;50.872;4.714;2023-03-03T05:45:46;38.00;;;18.20;;
8825;SDS011;4449;50.872;4.714;2023-03-03T05:48:14;42.17;;;20.05;;
8825;SDS011;4449;50.872;4.714;2023-03-03T05:50:42;42.17;;;19.85;;
8825;SDS011;4449;50.872;4.714;2023-03-03T05:53:11;43.28;;;19.13;;
8825;SDS011;4449;50.872;4.714;2023-03-03T05:55:39;47.00;;;19.65;;
8825;SDS011;4449;50.872;4.714;2023-03-03T05:58:06;42.53;;;20.67;;
8825;SDS011;4449;50.872;4.714;2023-03-03T06:00:34;42.33;;;19.90;;
8825;SDS011;4449;50.872;4.714;2023-03-03T06:03:02;45.03;;;20.55;;
8825;SDS011;4449;50.872;4.714;2023-03-03T06:05:30;49.60;;;21.70;;
8825;SDS011;4449;50.872;4.714;2023-03-03T06:07:58;45.53;;;21.55;;
8825;SDS011;4449;50.872;4.714;2023-03-03T06:10:27;46.63;;;21.38;;
8825;SDS011;4449;50.872;4.714;2023-03-03T06:12:55;52.22;;;20.23;;
8825;SDS011;4449;50.872;4.714;2023-03-03T06:15:23;43.13;;;20.00;;
8825;SDS011;4449;50.872;4.714;2023-03-03T06:17:51;48.13;;;20.85;;
8825;SDS011;4449;50.872;4.714;2023-03-03T06:20:19;48.60;;;21.90;;
8825;SDS011;4449;50.872;4.714;2023-03-03T06:22:46;44.72;;;19.88;;
8825;SDS011;4449;50.872;4.714;2023-03-03T06:25:14;43.90;;;20.70;;
8825;SDS011;4449;50.872;4.714;2023-03-03T06:27:44;41.08;;;19.63;;
8825;SDS011;4449;50.872;4.714;2023-03-03T06:30:12;43.20;;;19.88;;
8825;SDS011;4449;50.872;4.714;2023-03-03T06:32:40;46.72;;;21.10;;
8825;SDS011;4449;50.872;4.714;2023-03-03T06:35:07;40.45;;;18.90;;
8825;SDS011;4449;50.872;4.714;2023-03-03T06:37:35;41.13;;;19.63;;
8825;SDS011;4449;50.872;4.714;2023-03-03T06:40:03;39.80;;;18.40;;
8825;SDS011;4449;50.872;4.714;2023-03-03T06:42:31;40.20;;;18.35;;
8825;SDS011;4449;50.872;4.714;2023-03-03T06:45:01;39.90;;;17.58;;
8825;SDS011;4449;50.872;4.714;2023-03-03T06:47:28;38.70;;;18.75;;
8825;SDS011;4449;50.872;4.714;2023-03-03T06:49:58;43.38;;;18.33;;
8825;SDS011;4449;50.872;4.714;2023-03-03T06:52:26;39.38;;;16.98;;
8825;SDS011;4449;50.872;4.714;2023-03-03T06:54:54;37.72;;;17.10;;
8825;SDS011;4449;50.872;4.714;2023-03-03T06:57:25;32.28;;;16.17;;
8825;SDS011;4449;50.872;4.714;2023-03-03T06:59:54;41.60;;;19.30;;
8825;SDS011;4449;50.872;4.714;2023-03-03T07:02:24;42.85;;;17.40;;
8825;SDS011;4449;50.872;4.714;2023-03-03T07:04:54;41.30;;;17.17;;
8825;SDS011;4449;50.872;4.714;2023-03-03T07:07:23;37.45;;;17.88;;
8825;SDS011;4449;50.872;4.714;2023-03-03T07:09:51;36.75;;;17.83;;
8825;SDS011;4449;50.872;4.714;2023-03-03T07:12:20;40.65;;;16.38;;
8825;SDS011;4449;50.872;4.714;2023-03-03T07:14:50;43.75;;;19.00;;
8825;SDS011;4449;50.872;4.714;2023-03-03T07:17:20;34.85;;;17.00;;
8825;SDS011;4449;50.872;4.714;2023-03-03T07:19:50;31.60;;;16.50;;
8825;SDS011;4449;50.872;4.714;2023-03-03T07:22:18;35.58;;;15.18;;
8825;SDS011;4449;50.872;4.714;2023-03-03T07:24:47;34.65;;;17.38;;
8825;SDS011;4449;50.872;4.714;2023-03-03T07:27:16;34.00;;;16.73;;
8825;SDS011;4449;50.872;4.714;2023-03-03T07:29:46;32.28;;;16.35;;
8825;SDS011;4449;50.872;4.714;2023-03-03T07:32:24;44.90;;;17.17;;
8825;SDS011;4449;50.872;4.714;2023-03-03T07:34:54;38.65;;;17.52;;
8825;SDS011;4449;50.872;4.714;2023-03-03T07:37:28;32.80;;;16.58;;
8825;SDS011;4449;50.872;4.714;2023-03-03T07:39:56;34.03;;;16.38;;
8825;SDS011;4449;50.872;4.714;2023-03-03T07:42:25;31.88;;;16.90;;
8825;SDS011;4449;50.872;4.714;2023-03-03T07:44:54;32.15;;;17.17;;
8825;SDS011;4449;50.872;4.714;2023-03-03T07:47:23;37.42;;;17.50;;
8825;SDS011;4449;50.872;4.714;2023-03-03T07:49:51;31.40;;;16.65;;
8825;SDS011;4449;50.872;4.714;2023-03-03T07:52:24;32.15;;;15.70;;
8825;SDS011;4449;50.872;4.714;2023-03-03T07:54:53;32.80;;;16.02;;
8825;SDS011;4449;50.872;4.714;2023-03-03T07:57:22;30.50;;;15.57;;
8825;SDS011;4449;50.872;4.714;2023-03-03T07:59:52;32.85;;;15.80;;
8825;SDS011;4449;50.872;4.714;2023-03-03T08:02:29;34.35;;;15.48;;
8825;SDS011;4449;50.872;4.714;2023-03-03T08:04:59;31.65;;;14.73;;
8825;SDS011;4449;50.872;4.714;2023-03-03T08:07:29;24.65;;;15.50;;
8825;SDS011;4449;50.872;4.714;2023-03-03T08:09:57;31.67;;;16.40;;
8825;SDS011;4449;50.872;4.714;2023-03-03T08:12:30;31.48;;;15.15;;
8825;SDS011;4449;50.872;4.714;2023-03-03T08:15:09;30.23;;;15.30;;
8825;SDS011;4449;50.872;4.714;2023-03-03T08:17:39;33.53;;;15.73;;
8825;SDS011;4449;50.872;4.714;2023-03-03T08:22:54;26.35;;;13.38;;
8825;SDS011;4449;50.872;4.714;2023-03-03T08:25:21;23.73;;;12.88;;
8825;SDS011;4449;50.872;4.714;2023-03-03T08:27:49;23.52;;;12.48;;
8825;SDS011;4449;50.872;4.714;2023-03-03T08:30:17;22.15;;;12.07;;
8825;SDS011;4449;50.872;4.714;2023-03-03T08:32:45;27.38;;;13.45;;
8825;SDS011;4449;50.872;4.714;2023-03-03T08:35:13;25.02;;;13.10;;
8825;SDS011;4449;50.872;4.714;2023-03-03T08:37:40;25.48;;;13.00;;
8825;SDS011;4449;50.872;4.714;2023-03-03T08:40:10;30.60;;;13.40;;
8825;SDS011;4449;50.872;4.714;2023-03-03T08:42:38;26.70;;;13.90;;
8825;SDS011;4449;50.872;4.714;2023-03-03T08:45:06;30.73;;;15.07;;
8825;SDS011;4449;50.872;4.714;2023-03-03T08:47:34;29.60;;;14.05;;
8825;SDS011;4449;50.872;4.714;2023-03-03T08:50:02;30.23;;;14.85;;
8825;SDS011;4449;50.872;4.714;2023-03-03T08:52:30;27.38;;;14.63;;
8825;SDS011;4449;50.872;4.714;2023-03-03T08:54:59;23.35;;;12.85;;
8825;SDS011;4449;50.872;4.714;2023-03-03T08:57:28;26.55;;;12.23;;
8825;SDS011;4449;50.872;4.714;2023-03-03T08:59:56;30.17;;;14.05;;
8825;SDS011;4449;50.872;4.714;2023-03-03T09:02:24;27.50;;;12.73;;
8825;SDS011;4449;50.872;4.714;2023-03-03T09:04:51;29.92;;;14.07;;
8825;SDS011;4449;50.872;4.714;2023-03-03T09:07:19;31.67;;;14.07;;
8825;SDS011;4449;50.872;4.714;2023-03-03T09:09:47;26.13;;;12.15;;
8825;SDS011;4449;50.872;4.714;2023-03-03T09:12:15;28.37;;;14.33;;
8825;SDS011;4449;50.872;4.714;2023-03-03T09:14:45;31.63;;;16.05;;
8825;SDS011;4449;50.872;4.714;2023-03-03T09:17:24;28.40;;;14.47;;
8825;SDS011;4449;50.872;4.714;2023-03-03T09:19:52;27.60;;;14.53;;
8825;SDS011;4449;50.872;4.714;2023-03-03T09:22:22;28.03;;;13.70;;
8825;SDS011;4449;50.872;4.714;2023-03-03T09:24:51;29.07;;;14.93;;
8825;SDS011;4449;50.872;4.714;2023-03-03T09:27:22;28.50;;;14.07;;
8825;SDS011;4449;50.872;4.714;2023-03-03T09:29:54;34.40;;;14.07;;
8825;SDS011;4449;50.872;4.714;2023-03-03T09:32:29;35.07;;;15.53;;
8825;SDS011;4449;50.872;4.714;2023-03-03T09:34:57;30.23;;;14.57;;
8825;SDS011;4449;50.872;4.714;2023-03-03T09:37:26;29.70;;;15.10;;
8825;SDS011;4449;50.872;4.714;2023-03-03T09:39:56;31.67;;;16.27;;
8825;SDS011;4449;50.872;4.714;2023-03-03T10:42:01;29.67;;;13.18;;
8825;SDS011;4449;50.872;4.714;2023-03-03T10:44:34;25.98;;;12.75;;
8825;SDS011;4449;50.872;4.714;2023-03-03T10:47:16;21.60;;;10.98;;
8825;SDS011;4449;50.872;4.714;2023-03-03T10:49:51;28.20;;;14.10;;
8825;SDS011;4449;50.872;4.714;2023-03-03T10:52:24;21.10;;;10.23;;
8825;SDS011;4449;50.872;4.714;2023-03-03T10:55:18;28.70;;;12.40;;
8825;SDS011;4449;50.872;4.714;2023-03-03T10:57:52;27.60;;;14.07;;
8825;SDS011;4449;50.872;4.714;2023-03-03T11:00:26;32.17;;;14.97;;
8825;SDS011;4449;50.872;4.714;2023-03-03T11:05:39;26.77;;;13.67;;
8825;SDS011;4449;50.872;4.714;2023-03-03T11:08:10;25.13;;;12.47;;
8825;SDS011;4449;50.872;4.714;2023-03-03T11:10:46;30.37;;;15.33;;
8825;SDS011;4449;50.872;4.714;2023-03-03T11:13:17;31.57;;;13.93;;
8825;SDS011;4449;50.872;4.714;2023-03-03T11:15:59;31.03;;;14.03;;
8825;SDS011;4449;50.872;4.714;2023-03-03T11:18:33;24.43;;;12.87;;
8825;SDS011;4449;50.872;4.714;2023-03-03T11:21:05;25.67;;;13.90;;
8825;SDS011;4449;50.872;4.714;2023-03-03T11:23:38;23.60;;;11.37;;
8825;SDS011;4449;50.872;4.714;2023-03-03T11:26:10;25.27;;;12.87;;
8825;SDS011;4449;50.872;4.714;2023-03-03T11:28:46;23.87;;;13.63;;
8825;SDS011;4449;50.872;4.714;2023-03-03T11:31:19;29.30;;;13.70;;
8825;SDS011;4449;50.872;4.714;2023-03-03T11:33:50;26.33;;;13.07;;
8825;SDS011;4449;50.872;4.714;2023-03-03T11:36:22;29.90;;;13.00;;
8825;SDS011;4449;50.872;4.714;2023-03-03T11:38:53;27.00;;;12.63;;
8825;SDS011;4449;50.872;4.714;2023-03-03T11:41:28;24.10;;;13.30;;
8825;SDS011;4449;50.872;4.714;2023-03-03T11:44:02;26.80;;;12.93;;
8825;SDS011;4449;50.872;4.714;2023-03-03T11:46:33;24.83;;;13.10;;
8825;SDS011;4449;50.872;4.714;2023-03-03T11:49:02;24.27;;;12.67;;
8825;SDS011;4449;50.872;4.714;2023-03-03T11:51:34;26.47;;;12.87;;
8825;SDS011;4449;50.872;4.714;2023-03-03T11:54:07;27.70;;;12.37;;
8825;SDS011;4449;50.872;4.714;2023-03-03T11:56:38;27.43;;;12.23;;
8825;SDS011;4449;50.872;4.714;2023-03-03T11:59:21;26.47;;;11.90;;
8825;SDS011;4449;50.872;4.714;2023-03-03T12:01:54;25.23;;;12.40;;
8825;SDS011;4449;50.872;4.714;2023-03-03T12:04:24;23.10;;;12.60;;
8825;SDS011;4449;50.872;4.714;2023-03-03T12:07:00;25.57;;;12.47;;
8825;SDS011;4449;50.872;4.714;2023-03-03T12:09:33;25.87;;;13.23;;
8825;SDS011;4449;50.872;4.714;2023-03-03T12:12:06;25.77;;;13.33;;
8825;SDS011;4449;50.872;4.714;2023-03-03T12:14:43;25.67;;;13.43;;
8825;SDS011;4449;50.872;4.714;2023-03-03T12:17:18;24.40;;;12.53;;
8825;SDS011;4449;50.872;4.714;2023-03-03T12:19:49;21.23;;;11.90;;
8825;SDS011;4449;50.872;4.714;2023-03-03T12:22:30;26.23;;;14.10;;
8825;SDS011;4449;50.872;4.714;2023-03-03T12:25:12;28.83;;;12.33;;
8825;SDS011;4449;50.872;4.714;2023-03-03T12:27:46;23.50;;;12.63;;
8825;SDS011;4449;50.872;4.714;2023-03-03T12:30:19;26.03;;;12.90;;
8825;SDS011;4449;50.872;4.714;2023-03-03T12:33:04;25.70;;;12.33;;
8825;SDS011;4449;50.872;4.714;2023-03-03T12:35:38;25.40;;;11.63;;
8825;SDS011;4449;50.872;4.714;2023-03-03T12:38:10;25.97;;;12.90;;
8825;SDS011;4449;50.872;4.714;2023-03-03T12:40:42;23.27;;;12.13;;
8825;SDS011;4449;50.872;4.714;2023-03-03T12:43:25;25.40;;;12.67;;
8825;SDS011;4449;50.872;4.714;2023-03-03T12:46:01;27.23;;;11.97;;
8825;SDS011;4449;50.872;4.714;2023-03-03T12:48:34;21.87;;;12.47;;
8825;SDS011;4449;50.872;4.714;2023-03-03T12:51:04;22.27;;;12.73;;
8825;SDS011;4449;50.872;4.714;2023-03-03T12:53:37;29.93;;;13.10;;
8825;SDS011;4449;50.872;4.714;2023-03-03T12:56:11;25.17;;;12.10;;
8825;SDS011;4449;50.872;4.714;2023-03-03T12:58:42;25.27;;;11.60;;
8825;SDS011;4449;50.872;4.714;2023-03-03T13:01:18;24.30;;;12.33;;
8825;SDS011;4449;50.872;4.714;2023-03-03T13:03:55;23.23;;;11.90;;
8825;SDS011;4449;50.872;4.714;2023-03-03T13:06:26;25.60;;;12.67;;
8825;SDS011;4449;50.872;4.714;2023-03-03T13:09:07;23.60;;;11.93;;
8825;SDS011;4449;50.872;4.714;2023-03-03T13:11:41;25.40;;;13.13;;
8825;SDS011;4449;50.872;4.714;2023-03-03T13:14:15;22.83;;;12.10;;
8825;SDS011;4449;50.872;4.714;2023-03-03T13:16:48;26.47;;;12.03;;
8825;SDS011;4449;50.872;4.714;2023-03-03T13:19:19;22.43;;;11.37;;
8825;SDS011;4449;50.872;4.714;2023-03-03T13:21:49;22.90;;;10.40;;
8825;SDS011;4449;50.872;4.714;2023-03-03T13:24:20;18.87;;;11.33;;
8825;SDS011;4449;50.872;4.714;2023-03-03T13:26:51;23.57;;;11.67;;
8825;SDS011;4449;50.872;4.714;2023-03-03T13:29:22;27.10;;;11.53;;
8825;SDS011;4449;50.872;4.714;2023-03-03T13:31:53;19.93;;;11.50;;
8825;SDS011;4449;50.872;4.714;2023-03-03T13:34:27;24.03;;;11.53;;
8825;SDS011;4449;50.872;4.714;2023-03-03T13:37:00;22.53;;;11.47;;
8825;SDS011;4449;50.872;4.714;2023-03-03T13:39:32;21.27;;;11.57;;
8825;SDS011;4449;50.872;4.714;2023-03-03T13:42:01;23.67;;;11.03;;
8825;SDS011;4449;50.872;4.714;2023-03-03T13:44:30;22.37;;;10.63;;
8825;SDS011;4449;50.872;4.714;2023-03-03T13:47:08;21.77;;;11.60;;
8825;SDS011;4449;50.872;4.714;2023-03-03T13:49:43;19.90;;;11.53;;
8825;SDS011;4449;50.872;4.714;2023-03-03T13:52:14;20.20;;;10.40;;
8825;SDS011;4449;50.872;4.714;2023-03-03T13:54:51;23.60;;;12.30;;
8825;SDS011;4449;50.872;4.714;2023-03-03T13:57:24;25.67;;;11.38;;
8825;SDS011;4449;50.872;4.714;2023-03-03T13:59:59;17.60;;;10.73;;
8825;SDS011;4449;50.872;4.714;2023-03-03T14:02:48;19.13;;;10.77;;
8825;SDS011;4449;50.872;4.714;2023-03-03T14:05:22;22.03;;;10.93;;
8825;SDS011;4449;50.872;4.714;2023-03-03T14:07:54;20.93;;;11.17;;
8825;SDS011;4449;50.872;4.714;2023-03-03T14:10:25;42.93;;;20.27;;
8825;SDS011;4449;50.872;4.714;2023-03-03T14:12:56;18.27;;;10.37;;
8825;SDS011;4449;50.872;4.714;2023-03-03T14:15:27;18.13;;;10.43;;
8825;SDS011;4449;50.872;4.714;2023-03-03T14:18:08;20.80;;;10.33;;
8825;SDS011;4449;50.872;4.714;2023-03-03T14:20:43;19.27;;;10.63;;
8825;SDS011;4449;50.872;4.714;2023-03-03T14:23:13;18.07;;;9.40;;
8825;SDS011;4449;50.872;4.714;2023-03-03T14:25:51;18.67;;;9.77;;
8825;SDS011;4449;50.872;4.714;2023-03-03T14:28:20;20.27;;;10.30;;
8825;SDS011;4449;50.872;4.714;2023-03-03T14:30:48;15.83;;;9.27;;
8825;SDS011;4449;50.872;4.714;2023-03-03T14:33:20;18.23;;;9.63;;
8825;SDS011;4449;50.872;4.714;2023-03-03T14:35:51;18.00;;;9.67;;
8825;SDS011;4449;50.872;4.714;2023-03-03T14:38:35;17.20;;;10.57;;
8825;SDS011;4449;50.872;4.714;2023-03-03T14:41:09;22.40;;;10.03;;
8825;SDS011;4449;50.872;4.714;2023-03-03T14:43:39;18.77;;;9.93;;
8825;SDS011;4449;50.872;4.714;2023-03-03T14:46:19;19.23;;;9.83;;
8825;SDS011;4449;50.872;4.714;2023-03-03T14:48:50;17.57;;;10.23;;
8825;SDS011;4449;50.872;4.714;2023-03-03T14:51:22;17.80;;;9.43;;
8825;SDS011;4449;50.872;4.714;2023-03-03T14:53:50;21.37;;;10.00;;
8825;SDS011;4449;50.872;4.714;2023-03-03T14:56:21;20.27;;;10.50;;
8825;SDS011;4449;50.872;4.714;2023-03-03T14:58:49;24.17;;;10.00;;
8825;SDS011;4449;50.872;4.714;2023-03-03T15:01:22;16.23;;;10.17;;
8825;SDS011;4449;50.872;4.714;2023-03-03T15:03:58;19.97;;;8.27;;
8825;SDS011;4449;50.872;4.714;2023-03-03T15:06:29;18.13;;;9.03;;
8825;SDS011;4449;50.872;4.714;2023-03-03T15:09:01;20.90;;;9.20;;
8825;SDS011;4449;50.872;4.714;2023-03-03T15:11:47;18.00;;;10.13;;
8825;SDS011;4449;50.872;4.714;2023-03-03T15:14:17;14.50;;;8.93;;
8825;SDS011;4449;50.872;4.714;2023-03-03T15:16:46;15.63;;;8.73;;
8825;SDS011;4449;50.872;4.714;2023-03-03T15:19:29;14.60;;;8.40;;
8825;SDS011;4449;50.872;4.714;2023-03-03T15:22:03;21.93;;;9.53;;
8825;SDS011;4449;50.872;4.714;2023-03-03T15:24:37;13.70;;;8.07;;
8825;SDS011;4449;50.872;4.714;2023-03-03T15:27:06;16.57;;;7.50;;
8825;SDS011;4449;50.872;4.714;2023-03-03T15:29:36;15.40;;;8.63;;
8825;SDS011;4449;50.872;4.714;2023-03-03T15:32:06;12.43;;;7.73;;
8825;SDS011;4449;50.872;4.714;2023-03-03T15:34:41;13.90;;;7.87;;
8825;SDS011;4449;50.872;4.714;2023-03-03T15:37:17;12.27;;;7.60;;
8825;SDS011;4449;50.872;4.714;2023-03-03T15:39:48;10.03;;;7.00;;
8825;SDS011;4449;50.872;4.714;2023-03-03T15:42:21;18.13;;;7.43;;
8825;SDS011;4449;50.872;4.714;2023-03-03T15:44:54;18.03;;;7.00;;
8825;SDS011;4449;50.872;4.714;2023-03-03T15:47:25;12.53;;;6.70;;
8825;SDS011;4449;50.872;4.714;2023-03-03T15:50:05;13.23;;;6.90;;
8825;SDS011;4449;50.872;4.714;2023-03-03T15:52:44;11.97;;;6.77;;
8825;SDS011;4449;50.872;4.714;2023-03-03T15:55:17;11.63;;;6.90;;
8825;SDS011;4449;50.872;4.714;2023-03-03T15:57:50;14.73;;;7.07;;
8825;SDS011;4449;50.872;4.714;2023-03-03T16:00:24;8.13;;;6.97;;
8825;SDS011;4449;50.872;4.714;2023-03-03T16:02:59;10.17;;;6.33;;
8825;SDS011;4449;50.872;4.714;2023-03-03T16:05:30;13.37;;;8.03;;
8825;SDS011;4449;50.872;4.714;2023-03-03T16:08:00;14.90;;;7.27;;
8825;SDS011;4449;50.872;4.714;2023-03-03T16:10:31;10.97;;;6.57;;
8825;SDS011;4449;50.872;4.714;2023-03-03T16:13:13;16.90;;;7.77;;
8825;SDS011;4449;50.872;4.714;2023-03-03T16:15:46;11.33;;;6.70;;